Time;durP1;ratioP1;P1;durP2;ratioP2;P2;SDS_P1;SDS_P2;PMS_P1;PMS_P2;Temp;Humidity;BMP_temperature;BMP_pressure;BME280_temperature;BME280_humidity;BME280_pressure;Samples;Min_cycle;Max_cycle;Signal;HPM_P1;HPM_P2
2022/12/05 00:01:00;;;;;;;68.70;30.20;;;;;;;2.90;95.65;100658.38;102906;1276;22472;-56
2022/12/05 00:03:34;;;;;;;73.90;31.70;;;;;;;2.91;95.66;100658.06;102901;1296;22471;-59
2022/12/05 00:06:06;;;;;;;72.30;30.00;;;;;;;2.92;95.67;100655.43;102896;1291;22474;-59
2022/12/05 00:08:37;;;;;;;70.10;29.50;;;;;;;2.92;95.70;100650.16;103093;1305;22464;-57
2022/12/05 00:11:15;;;;;;;75.40;30.10;;;;;;;2.94;95.78;100650.28;102833;1305;22477;-58
2022/12/05 00:13:48;;;;;;;68.90;28.50;;;;;;;2.96;95.77;100646.64;102975;1305;25283;-58
2022/12/05 00:16:22;;;;;;;69.20;29.40;;;;;;;2.96;95.72;100643.63;102869;1284;25430;-58
2022/12/05 00:18:54;;;;;;;73.90;30.70;;;;;;;2.99;95.79;100643.36;102882;1299;22478;-56
2022/12/05 00:21:27;;;;;;;74.80;31.00;;;;;;;2.99;95.82;100644.54;102841;1305;23178;-58
2022/12/05 00:24:00;;;;;;;76.90;32.90;;;;;;;2.99;95.72;100642.18;102908;1306;22585;-58
2022/12/05 00:26:32;;;;;;;81.90;32.20;;;;;;;2.98;95.82;100636.27;102813;1290;23387;-60
2022/12/05 00:29:04;;;;;;;74.70;32.20;;;;;;;2.98;95.66;100635.33;102877;1305;23891;-56
2022/12/05 00:31:38;;;;;;;78.90;32.10;;;;;;;2.99;95.72;100632.32;102825;1305;24463;-59
2022/12/05 00:34:11;;;;;;;83.20;32.70;;;;;;;2.98;95.78;100632.59;102791;1305;22466;-57
2022/12/05 00:36:42;;;;;;;73.70;30.30;;;;;;;2.98;95.75;100642.02;102863;1302;22474;-59
2022/12/05 00:39:17;;;;;;;74.90;30.30;;;;;;;2.98;95.72;100637.71;102837;1276;22516;-58
2022/12/05 00:41:48;;;;;;;75.50;31.60;;;;;;;2.96;95.68;100632.98;102811;1283;22471;-60
2022/12/05 00:44:20;;;;;;;69.70;28.80;;;;;;;2.97;95.83;100632.43;102827;1291;23238;-59
2022/12/05 00:46:54;;;;;;;68.00;30.50;;;;;;;2.95;95.73;100632.70;102879;1305;22464;-58
2022/12/05 00:49:26;;;;;;;71.70;29.50;;;;;;;2.94;95.83;100631.36;103110;1277;26685;-59
2022/12/05 00:51:57;;;;;;;65.70;27.00;;;;;;;2.95;95.85;100627.11;103000;1305;22482;-57
2022/12/05 00:54:28;;;;;;;73.70;30.00;;;;;;;2.95;95.78;100629.71;102955;1305;22478;-58
2022/12/05 00:56:59;;;;;;;65.60;29.40;;;;;;;2.94;95.73;100633.02;102971;1283;24289;-59
2022/12/05 00:59:31;;;;;;;71.80;29.80;;;;;;;2.94;95.71;100637.82;102925;1298;22466;-59
2022/12/05 01:02:02;;;;;;;69.80;26.70;;;;;;;2.92;95.59;100639.61;102940;1305;22517;-60
2022/12/05 01:04:34;;;;;;;70.70;29.70;;;;;;;2.89;95.62;100643.97;103016;1291;22476;-59
2022/12/05 01:07:05;;;;;;;73.90;29.80;;;;;;;2.88;95.73;100648.55;102963;1277;24198;-59
2022/12/05 01:09:38;;;;;;;72.60;31.10;;;;;;;2.87;95.75;100647.47;102900;1277;22477;-57
2022/12/05 01:12:11;;;;;;;74.70;30.90;;;;;;;2.86;95.83;100647.25;102927;1277;25326;-57
2022/12/05 01:14:42;;;;;;;73.30;31.40;;;;;;;2.86;95.84;100652.45;102938;1285;23090;-56
2022/12/05 01:17:13;;;;;;;76.00;33.90;;;;;;;2.86;95.84;100656.55;102956;1299;22489;-59
2022/12/05 01:19:44;;;;;;;74.80;31.40;;;;;;;2.86;95.86;100657.49;102825;1290;25239;-56
2022/12/05 01:22:16;;;;;;;77.20;33.80;;;;;;;2.86;95.80;100655.06;102866;1305;25338;-58
2022/12/05 01:24:48;;;;;;;74.00;32.10;;;;;;;2.86;95.89;100652.69;102818;1277;24343;-57
2022/12/05 01:27:19;;;;;;;71.00;28.90;;;;;;;2.87;95.95;100642.75;102968;1275;23011;-57
2022/12/05 01:29:50;;;;;;;75.90;31.90;;;;;;;2.87;95.88;100636.13;103049;1305;22495;-59
2022/12/05 01:32:22;;;;;;;72.70;31.30;;;;;;;2.88;95.87;100641.00;102923;1275;22466;-56
2022/12/05 01:34:54;;;;;;;76.40;30.80;;;;;;;2.89;95.92;100638.77;102913;1291;22912;-56
2022/12/05 01:37:25;;;;;;;67.90;29.40;;;;;;;2.90;95.85;100628.98;102794;1284;22459;-57
2022/12/05 01:39:57;;;;;;;70.80;30.60;;;;;;;2.90;95.82;100630.09;102854;1305;22466;-59
2022/12/05 01:42:28;;;;;;;67.70;28.10;;;;;;;2.89;95.73;100638.95;102890;1277;22702;-56
2022/12/05 01:45:15;;;;;;;79.00;31.80;;;;;;;2.88;95.77;100633.98;102904;1305;22492;-56
2022/12/05 01:47:47;;;;;;;77.10;31.20;;;;;;;2.89;95.93;100625.54;102770;1306;22550;-57
2022/12/05 01:50:19;;;;;;;78.30;32.00;;;;;;;2.88;95.76;100626.42;102941;1281;25333;-58
2022/12/05 01:52:53;;;;;;;74.00;32.30;;;;;;;2.88;95.78;100626.97;102836;1300;23213;-58
2022/12/05 01:55:24;;;;;;;75.10;31.30;;;;;;;2.89;95.88;100627.04;102936;1305;22473;-59
2022/12/05 01:57:59;;;;;;;69.10;30.60;;;;;;;2.89;95.90;100620.98;102856;1305;22714;-58
2022/12/05 02:00:30;;;;;;;72.00;31.10;;;;;;;2.89;95.88;100634.21;102792;1305;23101;-56
2022/12/05 02:03:06;;;;;;;74.80;31.40;;;;;;;2.88;95.80;100634.14;102846;1284;22461;-57
2022/12/05 02:05:38;;;;;;;67.30;29.30;;;;;;;2.88;95.94;100631.70;102859;1280;23225;-55
2022/12/05 02:08:11;;;;;;;66.30;27.90;;;;;;;2.90;95.98;100626.63;102927;1304;22551;-57
2022/12/05 02:10:46;;;;;;;63.80;27.30;;;;;;;2.91;95.92;100623.53;102826;1305;22473;-56
2022/12/05 02:13:41;;;;;;;67.40;28.70;;;;;;;2.93;95.97;100622.02;102933;1277;22482;-58
2022/12/05 02:16:21;;;;;;;62.00;26.20;;;;;;;2.92;95.88;100619.73;102886;1306;25345;-58
2022/12/05 02:19:04;;;;;;;61.70;26.30;;;;;;;2.93;95.93;100615.62;102846;1277;25010;-56
2022/12/05 02:22:01;;;;;;;68.80;27.60;;;;;;;2.95;95.84;100608.27;102782;1300;22455;-58
2022/12/05 02:25:00;;;;;;;62.60;24.90;;;;;;;2.94;95.81;100606.46;102748;1277;22484;-57
2022/12/05 02:27:52;;;;;;;60.00;26.80;;;;;;;2.94;95.76;100606.54;102816;1305;22930;-58
2022/12/05 02:30:27;;;;;;;63.20;25.70;;;;;;;2.93;95.79;100605.14;102900;1285;25367;-57
2022/12/05 02:33:09;;;;;;;56.50;25.50;;;;;;;2.92;95.69;100609.27;102901;1284;22589;-59
2022/12/05 02:35:55;;;;;;;58.80;25.60;;;;;;;2.90;95.73;100605.91;102905;1284;22479;-57
2022/12/05 02:38:32;;;;;;;60.60;25.10;;;;;;;2.90;95.73;100601.97;102927;1305;25287;-56
2022/12/05 02:41:14;;;;;;;66.60;26.50;;;;;;;2.91;95.91;100603.77;102897;1306;22481;-56
2022/12/05 02:43:53;;;;;;;61.90;25.90;;;;;;;2.93;95.84;100604.05;102823;1305;24455;-55
2022/12/05 02:46:28;;;;;;;62.10;26.50;;;;;;;2.93;95.72;100601.30;102806;1296;22536;-59
2022/12/05 02:49:04;;;;;;;62.20;27.10;;;;;;;2.92;95.72;100600.29;102820;1284;22604;-59
2022/12/05 02:51:41;;;;;;;63.40;26.00;;;;;;;2.92;95.77;100600.83;102868;1306;22470;-57
2022/12/05 02:54:18;;;;;;;57.60;24.90;;;;;;;2.93;95.75;100603.34;102774;1283;22529;-57
2022/12/05 02:56:52;;;;;;;62.80;25.10;;;;;;;2.94;95.69;100605.83;102912;1284;22470;-58
2022/12/05 02:59:26;;;;;;;57.50;23.70;;;;;;;2.93;95.55;100602.08;102787;1284;24376;-58
2022/12/05 03:01:58;;;;;;;59.90;24.00;;;;;;;2.93;95.64;100604.99;102887;1299;22468;-59
2022/12/05 03:04:31;;;;;;;59.10;25.60;;;;;;;2.94;95.67;100599.60;103057;1277;22534;-59
2022/12/05 03:07:07;;;;;;;68.40;28.10;;;;;;;2.95;95.66;100596.69;102852;1305;22464;-56
2022/12/05 03:09:44;;;;;;;54.80;23.60;;;;;;;2.96;95.60;100596.52;102883;1305;22594;-56
2022/12/05 03:12:20;;;;;;;60.40;24.20;;;;;;;2.96;95.51;100597.08;102830;1300;24328;-60
2022/12/05 03:14:56;;;;;;;59.60;26.70;;;;;;;2.94;95.38;100595.92;102935;1283;24423;-60
2022/12/05 03:17:31;;;;;;;59.70;25.60;;;;;;;2.93;95.44;100590.51;102887;1280;24399;-59
2022/12/05 03:20:09;;;;;;;57.60;24.90;;;;;;;2.93;95.56;100586.63;102930;1293;24422;-57
2022/12/05 03:22:46;;;;;;;54.10;23.30;;;;;;;2.94;95.53;100583.93;103296;1280;22583;-57
2022/12/05 03:25:18;;;;;;;59.90;25.40;;;;;;;2.94;95.41;100582.59;102875;1284;22476;-58
2022/12/05 03:28:02;;;;;;;55.90;23.50;;;;;;;2.95;95.43;100582.12;103084;1305;22467;-58
2022/12/05 03:30:39;;;;;;;50.20;20.80;;;;;;;2.93;95.21;100586.87;102875;1281;22449;-59
2022/12/05 03:33:15;;;;;;;54.90;24.60;;;;;;;2.91;95.25;100591.46;103190;1280;22621;-58
2022/12/05 03:36:00;;;;;;;54.20;22.70;;;;;;;2.91;95.28;100590.77;102881;1305;22469;-60
2022/12/05 03:38:34;;;;;;;54.40;22.70;;;;;;;2.89;95.24;100590.57;102855;1290;22539;-60
2022/12/05 03:41:11;;;;;;;56.50;23.80;;;;;;;2.88;95.27;100588.45;102830;1305;22463;-59
2022/12/05 03:43:52;;;;;;;53.90;23.10;;;;;;;2.87;95.32;100589.33;102896;1283;22463;-56
2022/12/05 03:46:27;;;;;;;55.70;23.30;;;;;;;2.88;95.31;100587.66;102853;1289;22478;-58
2022/12/05 03:49:03;;;;;;;54.00;24.10;;;;;;;2.88;95.26;100584.68;102807;1305;25492;-57
2022/12/05 03:51:40;;;;;;;55.50;24.10;;;;;;;2.83;95.17;100584.89;102817;1283;22468;-57
2022/12/05 03:54:16;;;;;;;57.90;22.80;;;;;;;2.81;95.22;100583.13;102880;1284;22501;-57
2022/12/05 03:56:53;;;;;;;48.80;22.20;;;;;;;2.81;95.26;100585.02;102901;1305;22457;-58
2022/12/05 03:59:32;;;;;;;55.70;23.20;;;;;;;2.80;95.20;100580.70;102874;1305;22680;-59
2022/12/05 04:02:11;;;;;;;55.10;23.60;;;;;;;2.78;95.20;100582.23;102930;1305;23761;-58
2022/12/05 04:04:47;;;;;;;54.60;22.70;;;;;;;2.77;95.19;100577.77;102984;1305;25317;-59
2022/12/05 04:07:20;;;;;;;56.90;23.20;;;;;;;2.76;95.29;100575.80;102815;1305;25884;-55
2022/12/05 04:09:57;;;;;;;59.30;23.50;;;;;;;2.77;95.55;100570.43;102909;1284;22606;-58
2022/12/05 04:12:32;;;;;;;54.80;23.90;;;;;;;2.80;95.57;100566.14;102830;1277;22484;-58
2022/12/05 04:15:08;;;;;;;52.40;22.60;;;;;;;2.80;95.42;100563.52;102864;1288;25360;-56
2022/12/05 04:17:46;;;;;;;53.50;21.10;;;;;;;2.78;95.21;100562.94;102854;1290;24396;-57
2022/12/05 04:23:12;;;;;;;53.90;24.80;;;;;;;2.69;95.13;100561.50;102804;1305;24351;-57
2022/12/05 04:25:58;;;;;;;49.60;19.10;;;;;;;2.67;95.16;100567.45;102895;1291;22482;-60
2022/12/05 04:28:36;;;;;;;59.00;24.40;;;;;;;2.65;95.16;100574.41;102736;1285;222055;-55
2022/12/05 04:31:11;;;;;;;55.10;23.00;;;;;;;2.64;95.20;100570.25;102816;1284;22582;-58
2022/12/05 04:33:46;;;;;;;52.60;22.30;;;;;;;2.63;95.25;100570.27;102934;1305;22598;-57
2022/12/05 04:36:22;;;;;;;55.10;22.80;;;;;;;2.63;95.25;100568.30;102826;1305;23736;-56
2022/12/05 04:39:00;;;;;;;58.90;23.70;;;;;;;2.62;95.22;100566.27;102923;1276;23222;-59
2022/12/05 04:41:39;;;;;;;54.20;23.10;;;;;;;2.63;95.34;100555.55;102782;1305;25499;-58
2022/12/05 04:44:14;;;;;;;55.00;22.30;;;;;;;2.62;95.21;100557.90;102783;1305;24351;-58
2022/12/05 04:46:47;;;;;;;53.60;22.90;;;;;;;2.61;95.26;100558.00;102872;1284;22469;-56
2022/12/05 04:49:22;;;;;;;52.80;22.10;;;;;;;2.61;95.21;100560.23;102856;1297;22603;-56
2022/12/05 04:51:57;;;;;;;55.10;23.20;;;;;;;2.61;95.24;100560.38;102896;1305;25221;-56
2022/12/05 04:54:32;;;;;;;55.90;21.50;;;;;;;2.60;95.22;100565.11;103148;1284;22703;-59
2022/12/05 04:57:07;;;;;;;58.70;23.40;;;;;;;2.59;95.20;100568.82;102879;1277;22473;-59
2022/12/05 04:59:38;;;;;;;63.50;26.10;;;;;;;2.58;95.18;100569.71;102923;1305;22530;-56
2022/12/05 05:02:13;;;;;;;60.40;25.20;;;;;;;2.58;95.28;100564.74;102949;1298;22487;-56
2022/12/05 05:04:47;;;;;;;60.50;24.20;;;;;;;2.58;95.29;100562.55;102873;1285;22591;-58
2022/12/05 05:07:19;;;;;;;61.90;24.20;;;;;;;2.59;95.25;100568.69;102872;1305;22461;-58
2022/12/05 05:09:55;;;;;;;55.60;22.90;;;;;;;2.57;95.14;100573.09;102823;1306;24468;-61
2022/12/05 05:12:26;;;;;;;61.20;24.00;;;;;;;2.55;95.13;100575.27;102858;1296;22460;-56
2022/12/05 05:14:58;;;;;;;56.10;24.20;;;;;;;2.54;95.16;100573.30;102946;1291;22480;-57
2022/12/05 05:17:29;;;;;;;53.80;24.10;;;;;;;2.55;95.28;100566.37;102946;1305;22567;-58
2022/12/05 05:20:22;;;;;;;59.30;23.70;;;;;;;2.57;95.29;100567.52;102905;1305;24262;-56
2022/12/05 05:22:55;;;;;;;50.80;23.50;;;;;;;2.57;95.29;100570.49;102731;1277;22480;-60
2022/12/05 05:25:27;;;;;;;57.20;24.10;;;;;;;2.57;95.23;100574.44;102872;1284;24523;-56
2022/12/05 05:27:59;;;;;;;53.20;21.80;;;;;;;2.55;95.16;100584.38;102896;1299;23138;-58
2022/12/05 05:30:30;;;;;;;55.60;22.20;;;;;;;2.54;95.22;100588.27;103045;1296;22600;-58
2022/12/05 05:33:02;;;;;;;52.30;21.40;;;;;;;2.56;95.27;100589.42;102926;1283;22509;-58
2022/12/05 05:35:35;;;;;;;50.70;22.20;;;;;;;2.57;95.32;100594.04;102960;1296;22478;-59
2022/12/05 05:38:06;;;;;;;56.70;23.10;;;;;;;2.59;95.34;100592.85;103057;1298;25327;-59
2022/12/05 05:40:38;;;;;;;49.20;22.80;;;;;;;2.60;95.25;100597.64;102842;1305;25461;-57
2022/12/05 05:43:09;;;;;;;47.90;21.60;;;;;;;2.60;95.21;100599.45;102883;1285;25025;-59
2022/12/05 05:45:41;;;;;;;52.50;22.00;;;;;;;2.60;95.17;100604.02;102867;1284;25450;-55
2022/12/05 05:48:12;;;;;;;53.30;21.70;;;;;;;2.59;95.13;100600.01;102902;1285;22467;-57
2022/12/05 05:50:43;;;;;;;50.20;23.90;;;;;;;2.59;95.18;100597.42;102988;1285;22476;-56
2022/12/05 05:53:15;;;;;;;58.40;24.50;;;;;;;2.59;95.12;100597.17;103022;1284;22499;-58
2022/12/05 05:55:47;;;;;;;61.80;28.70;;;;;;;2.58;95.14;100602.94;103062;1301;22499;-59
2022/12/05 05:58:18;;;;;;;61.20;26.00;;;;;;;2.57;95.14;100606.25;102902;1284;22473;-56
2022/12/05 06:00:50;;;;;;;57.60;27.40;;;;;;;2.58;95.26;100599.39;102895;1305;23209;-57
2022/12/05 06:03:21;;;;;;;55.20;26.40;;;;;;;2.60;95.20;100598.20;103009;1305;22491;-57
2022/12/05 06:06:01;;;;;;;56.50;24.60;;;;;;;2.60;95.29;100604.16;102890;1284;25361;-58
2022/12/05 06:08:33;;;;;;;60.80;27.60;;;;;;;2.60;95.08;100599.20;102881;1284;22455;-58
2022/12/05 06:11:09;;;;;;;61.00;26.50;;;;;;;2.60;95.10;100605.52;102850;1283;26254;-60
2022/12/05 06:13:40;;;;;;;52.80;24.10;;;;;;;2.59;95.06;100608.76;102917;1284;22467;-57
2022/12/05 06:16:14;;;;;;;55.50;25.40;;;;;;;2.59;95.15;100604.95;102899;1280;29059;-56
2022/12/05 06:18:48;;;;;;;54.00;23.80;;;;;;;2.61;95.26;100600.61;102895;1284;22479;-58
2022/12/05 06:21:20;;;;;;;50.40;22.00;;;;;;;2.64;95.29;100594.03;102965;1281;25275;-57
2022/12/05 06:23:51;;;;;;;51.30;22.70;;;;;;;2.66;95.20;100585.34;102971;1284;24424;-57
2022/12/05 06:26:24;;;;;;;47.70;21.70;;;;;;;2.68;95.16;100583.33;102954;1304;24490;-55
2022/12/05 06:28:56;;;;;;;46.80;21.10;;;;;;;2.69;95.01;100597.27;102970;1280;24443;-58
2022/12/05 06:31:30;;;;;;;46.10;20.60;;;;;;;2.67;94.76;100609.11;102950;1284;25474;-60
2022/12/05 06:34:04;;;;;;;55.20;23.20;;;;;;;2.67;94.96;100605.26;102924;1284;22474;-59
2022/12/05 06:36:35;;;;;;;52.10;21.40;;;;;;;2.69;95.11;100598.05;102912;1283;22475;-56
2022/12/05 06:39:07;;;;;;;55.90;23.00;;;;;;;2.71;95.05;100594.08;102845;1300;22460;-59
2022/12/05 06:41:39;;;;;;;54.80;22.90;;;;;;;2.73;94.90;100599.23;102808;1284;25030;-59
2022/12/05 06:44:11;;;;;;;51.60;21.40;;;;;;;2.74;94.94;100604.20;102885;1291;25276;-59
2022/12/05 06:46:42;;;;;;;45.60;20.40;;;;;;;2.76;95.00;100597.95;102851;1300;22478;-58
2022/12/05 06:49:14;;;;;;;49.00;22.20;;;;;;;2.76;95.03;100594.23;102826;1283;22585;-60
2022/12/05 06:51:45;;;;;;;49.30;20.40;;;;;;;2.78;94.91;100593.73;102898;1305;22709;-58
2022/12/05 06:54:16;;;;;;;47.20;22.30;;;;;;;2.80;94.94;100597.02;102834;1284;22582;-56
2022/12/05 06:56:48;;;;;;;50.00;22.20;;;;;;;2.79;94.81;100601.52;102841;1291;22467;-59
2022/12/05 06:59:20;;;;;;;51.90;22.00;;;;;;;2.78;94.78;100599.80;102864;1280;24440;-58
2022/12/05 07:01:52;;;;;;;50.20;21.30;;;;;;;2.78;94.75;100598.45;102930;1303;22487;-56
2022/12/05 07:04:24;;;;;;;52.60;22.90;;;;;;;2.79;94.86;100592.30;102891;1284;22479;-59
2022/12/05 07:06:57;;;;;;;93.00;43.10;;;;;;;2.81;94.93;100590.14;102958;1305;22473;-59
2022/12/05 07:12:15;;;;;;;57.60;29.00;;;;;;;2.85;94.81;100591.10;102970;1284;25320;-59
2022/12/05 07:14:47;;;;;;;65.80;33.00;;;;;;;2.86;94.81;100588.86;104689;1305;22548;-59
2022/12/05 07:17:21;;;;;;;67.00;33.20;;;;;;;2.88;94.75;100582.22;103908;1305;22471;-57
2022/12/05 07:19:53;;;;;;;63.10;31.70;;;;;;;2.89;94.80;100580.48;103286;1280;23480;-56
2022/12/05 07:22:24;;;;;;;62.90;31.50;;;;;;;2.91;94.74;100581.30;102998;1296;25282;-57
2022/12/05 07:24:56;;;;;;;77.90;34.80;;;;;;;2.92;94.64;100585.39;103006;1305;25575;-59
2022/12/05 07:27:27;;;;;;;80.70;36.70;;;;;;;2.92;94.58;100590.27;102886;1284;26516;-58
2022/12/05 07:29:59;;;;;;;79.20;37.70;;;;;;;2.93;94.59;100590.19;102902;1306;22538;-57
2022/12/05 07:32:33;;;;;;;83.70;38.50;;;;;;;2.95;94.66;100591.10;102956;1284;22525;-57
2022/12/05 07:35:05;;;;;;;88.30;37.30;;;;;;;2.95;94.53;100596.61;102954;1305;25236;-59
2022/12/05 07:37:36;;;;;;;81.00;38.50;;;;;;;2.95;94.48;100595.04;102962;1280;25761;-58
2022/12/05 07:40:10;;;;;;;100.40;44.60;;;;;;;2.96;94.49;100597.70;105493;1305;22474;-59
2022/12/05 07:42:41;;;;;;;83.00;33.20;;;;;;;2.95;94.55;100602.05;103091;1283;22474;-59
2022/12/05 07:45:13;;;;;;;85.00;33.00;;;;;;;2.95;94.42;100599.05;103034;1305;25272;-59
2022/12/05 07:47:45;;;;;;;86.80;32.20;;;;;;;2.94;94.53;100604.17;102930;1280;25375;-58
2022/12/05 07:50:16;;;;;;;66.30;26.20;;;;;;;2.95;94.52;100607.16;102908;1284;25226;-55
2022/12/05 07:52:49;;;;;;;59.20;25.70;;;;;;;2.97;94.48;100611.09;102933;1280;22518;-57
2022/12/05 07:55:20;;;;;;;67.10;27.60;;;;;;;2.98;94.55;100615.73;102911;1280;25315;-58
2022/12/05 07:57:51;;;;;;;67.00;26.30;;;;;;;2.99;94.58;100620.27;102920;1305;22486;-57
2022/12/05 08:00:24;;;;;;;62.40;25.30;;;;;;;3.02;94.57;100619.04;102811;1285;23226;-56
2022/12/05 08:02:55;;;;;;;57.00;25.20;;;;;;;3.03;94.53;100615.07;102946;1284;22634;-59
2022/12/05 08:05:26;;;;;;;55.00;23.80;;;;;;;3.03;94.50;100611.14;102913;1285;22463;-60
2022/12/05 08:07:58;;;;;;;62.10;26.80;;;;;;;3.03;94.49;100610.51;103050;1280;24354;-58
2022/12/05 08:10:29;;;;;;;58.80;27.30;;;;;;;3.04;94.42;100611.20;102894;1284;22468;-61
2022/12/05 08:13:01;;;;;;;54.60;25.80;;;;;;;3.05;94.48;100614.48;102832;1305;24547;-58
2022/12/05 08:15:33;;;;;;;65.40;31.30;;;;;;;3.07;94.47;100620.52;103052;1305;22601;-59
2022/12/05 08:18:05;;;;;;;70.50;29.10;;;;;;;3.07;94.42;100620.67;102860;1284;22488;-59
2022/12/05 08:20:37;;;;;;;62.20;28.20;;;;;;;3.10;94.52;100622.21;102860;1280;22461;-59
2022/12/05 08:23:08;;;;;;;56.40;25.90;;;;;;;3.12;94.57;100622.88;102846;1300;22469;-59
2022/12/05 08:25:40;;;;;;;54.70;24.70;;;;;;;3.14;94.57;100630.04;102981;1296;24511;-60
2022/12/05 08:28:11;;;;;;;63.30;25.20;;;;;;;3.15;94.51;100627.49;102849;1280;22510;-56
2022/12/05 08:30:43;;;;;;;51.10;22.50;;;;;;;3.16;94.68;100629.44;102866;1305;24788;-61
2022/12/05 08:33:14;;;;;;;56.60;24.00;;;;;;;3.19;94.66;100626.87;102858;1305;22484;-57
2022/12/05 08:35:46;;;;;;;48.60;20.80;;;;;;;3.20;94.57;100632.52;102880;1293;24392;-59
2022/12/05 08:38:17;;;;;;;53.00;22.70;;;;;;;3.20;94.42;100636.48;102842;1300;22594;-58
2022/12/05 08:40:48;;;;;;;55.60;23.80;;;;;;;3.19;94.44;100637.59;102861;1285;22482;-59
2022/12/05 08:43:20;;;;;;;48.50;21.30;;;;;;;3.20;94.52;100637.19;103032;1305;22594;-56
2022/12/05 08:45:53;;;;;;;53.50;23.10;;;;;;;3.21;94.48;100641.50;102913;1283;25116;-59
2022/12/05 08:48:25;;;;;;;50.80;23.30;;;;;;;3.23;94.45;100646.59;102917;1284;22471;-57
2022/12/05 08:50:57;;;;;;;49.50;21.90;;;;;;;3.23;94.55;100644.53;103145;1305;25404;-58
2022/12/05 08:53:29;;;;;;;49.40;22.00;;;;;;;3.25;94.65;100642.52;102696;1284;22544;-57
2022/12/05 08:56:03;;;;;;;56.30;24.00;;;;;;;3.27;94.73;100639.50;102918;1287;23087;-56
2022/12/05 08:58:35;;;;;;;56.10;25.20;;;;;;;3.29;94.64;100643.17;102890;1298;22467;-58
2022/12/05 09:01:09;;;;;;;59.40;27.00;;;;;;;3.30;94.57;100637.23;102916;1284;24420;-58
2022/12/05 09:03:42;;;;;;;48.60;23.00;;;;;;;3.32;94.58;100637.77;102840;1301;25256;-56
2022/12/05 09:06:17;;;;;;;53.00;24.20;;;;;;;3.33;94.52;100639.50;102906;1284;24257;-59
2022/12/05 09:08:52;;;;;;;58.00;24.10;;;;;;;3.34;94.64;100639.08;102933;1305;24311;-57
2022/12/05 09:11:27;;;;;;;56.20;25.30;;;;;;;3.37;94.76;100637.21;103079;1305;22503;-59
2022/12/05 09:14:01;;;;;;;51.20;23.20;;;;;;;3.40;94.68;100632.41;102896;1284;24517;-59
2022/12/05 09:16:35;;;;;;;50.50;23.90;;;;;;;3.41;94.47;100629.80;102895;1305;22490;-58
2022/12/05 09:19:12;;;;;;;54.70;23.80;;;;;;;3.43;94.51;100631.20;102988;1306;22497;-58
2022/12/05 09:21:44;;;;;;;57.80;29.00;;;;;;;3.45;94.61;100629.41;102813;1280;23469;-57
2022/12/05 09:24:16;;;;;;;63.80;31.70;;;;;;;3.46;94.42;100627.83;102922;1291;24365;-55
2022/12/05 09:26:48;;;;;;;69.20;33.70;;;;;;;3.47;94.61;100620.70;102924;1305;22475;-58
2022/12/05 09:29:20;;;;;;;75.70;39.20;;;;;;;3.48;94.47;100618.70;102953;1293;25359;-57
2022/12/05 09:31:52;;;;;;;66.00;34.90;;;;;;;3.50;94.54;100620.89;102894;1305;27440;-56
2022/12/05 09:34:24;;;;;;;57.50;27.80;;;;;;;3.51;94.54;100622.61;102858;1305;22479;-58
2022/12/05 09:36:56;;;;;;;54.90;27.90;;;;;;;3.52;94.49;100624.08;102868;1305;24422;-56
2022/12/05 09:39:28;;;;;;;65.90;32.00;;;;;;;3.54;94.64;100624.53;102907;1285;22476;-58
2022/12/05 09:42:23;;;;;;;68.00;31.70;;;;;;;3.57;94.57;100623.45;102922;1305;22480;-58
2022/12/05 09:45:13;;;;;;;63.00;28.20;;;;;;;3.58;94.51;100619.64;103137;1285;24294;-58
2022/12/05 09:47:59;;;;;;;62.70;29.00;;;;;;;3.60;94.50;100613.53;103065;1277;24240;-58
2022/12/05 09:50:34;;;;;;;51.80;23.50;;;;;;;3.60;94.40;100610.93;102926;1281;22485;-59
2022/12/05 09:53:17;;;;;;;54.30;25.00;;;;;;;3.61;94.49;100607.76;102951;1284;24347;-60
2022/12/05 09:55:52;;;;;;;52.10;23.20;;;;;;;3.62;94.41;100611.52;102861;1305;22511;-58
2022/12/05 09:58:37;;;;;;;61.00;28.40;;;;;;;3.64;94.37;100602.80;102938;1280;24592;-58
2022/12/05 10:01:21;;;;;;;58.20;26.00;;;;;;;3.66;94.53;100600.00;102837;1305;22472;-57
2022/12/05 10:04:06;;;;;;;66.20;31.60;;;;;;;3.69;94.53;100600.27;103177;1305;22526;-55
2022/12/05 10:06:48;;;;;;;66.70;27.90;;;;;;;3.72;94.44;100599.42;102835;1289;24971;-59
2022/12/05 10:09:45;;;;;;;54.20;24.60;;;;;;;3.74;94.52;100598.03;102889;1293;22464;-55
2022/12/05 10:12:33;;;;;;;47.60;22.90;;;;;;;3.76;94.53;100595.00;103088;1305;22477;-59
2022/12/05 10:15:14;;;;;;;50.20;23.20;;;;;;;3.77;94.35;100594.73;102896;1285;22487;-56
2022/12/05 10:17:51;;;;;;;50.80;23.00;;;;;;;3.78;94.40;100594.10;103122;1305;22492;-58
2022/12/05 10:20:29;;;;;;;56.60;24.50;;;;;;;3.80;94.46;100594.05;102886;1305;24388;-59
2022/12/05 10:23:06;;;;;;;53.40;23.90;;;;;;;3.82;94.50;100590.22;102926;1305;22475;-58
2022/12/05 10:25:40;;;;;;;53.40;25.20;;;;;;;3.84;94.40;100593.32;103010;1285;22786;-57
2022/12/05 10:28:24;;;;;;;52.90;24.50;;;;;;;3.86;94.30;100597.64;103170;1283;25309;-59
2022/12/05 10:31:00;;;;;;;53.80;24.50;;;;;;;3.87;94.32;100595.98;102999;1296;24476;-57
2022/12/05 10:33:40;;;;;;;55.60;24.30;;;;;;;3.88;94.25;100590.33;102845;1296;22586;-59
2022/12/05 10:36:16;;;;;;;54.20;23.50;;;;;;;3.90;94.25;100586.11;102953;1303;22478;-58
2022/12/05 10:38:49;;;;;;;52.30;24.50;;;;;;;3.92;94.21;100582.21;102854;1305;25797;-57
2022/12/05 10:41:20;;;;;;;50.80;24.30;;;;;;;3.93;94.20;100582.10;102888;1291;22476;-58
2022/12/05 10:43:53;;;;;;;55.30;24.90;;;;;;;3.94;94.11;100579.16;102928;1278;25373;-57
2022/12/05 10:46:24;;;;;;;52.60;25.40;;;;;;;3.94;94.11;100581.14;102876;1305;23661;-59
2022/12/05 10:48:56;;;;;;;56.40;25.60;;;;;;;3.95;94.05;100579.28;103053;1280;22502;-63
2022/12/05 10:51:30;;;;;;;64.40;28.40;;;;;;;3.97;94.10;100579.51;102577;1281;29236;-57
2022/12/05 10:54:02;;;;;;;64.70;30.10;;;;;;;3.99;94.09;100580.32;102931;1285;22459;-59
2022/12/05 10:56:47;;;;;;;59.60;26.10;;;;;;;4.02;94.09;100580.83;102778;1284;22586;-59
2022/12/05 10:59:20;;;;;;;54.80;24.60;;;;;;;4.04;94.03;100578.57;102942;1286;24351;-58
2022/12/05 11:01:54;;;;;;;55.90;25.10;;;;;;;4.06;94.03;100582.87;103283;1281;22468;-60
2022/12/05 11:04:30;;;;;;;55.70;25.10;;;;;;;4.07;93.97;100585.83;103019;1284;22468;-59
2022/12/05 11:07:06;;;;;;;52.30;23.90;;;;;;;4.08;93.94;100585.73;102849;1300;22485;-59
2022/12/05 11:09:39;;;;;;;56.10;26.80;;;;;;;4.12;93.93;100580.92;102843;1306;24329;-60
2022/12/05 11:12:19;;;;;;;58.40;25.00;;;;;;;4.15;93.85;100581.19;102871;1304;22466;-60
2022/12/05 11:15:00;;;;;;;53.70;25.70;;;;;;;4.16;93.81;100580.29;102843;1287;24304;-61
2022/12/05 11:17:35;;;;;;;57.60;25.90;;;;;;;4.18;93.89;100575.59;102874;1280;22469;-59
2022/12/05 11:20:35;;;;;;;53.80;25.30;;;;;;;4.19;93.77;100580.06;102982;1301;23236;-61
2022/12/05 11:23:23;;;;;;;62.30;30.30;;;;;;;4.20;93.73;100579.72;102933;1291;22479;-59
2022/12/05 11:25:55;;;;;;;55.80;26.60;;;;;;;4.21;93.71;100578.91;103060;1296;22529;-60
2022/12/05 11:28:33;;;;;;;89.20;44.40;;;;;;;4.22;93.61;100573.13;103095;1287;22478;-59
2022/12/05 11:31:07;;;;;;;100.70;53.60;;;;;;;4.22;93.62;100569.89;103089;1279;22477;-60
2022/12/05 11:33:39;;;;;;;70.90;34.30;;;;;;;4.24;93.71;100566.86;102910;1306;22488;-61
2022/12/05 11:36:18;;;;;;;75.60;39.40;;;;;;;4.25;93.61;100568.73;102964;1280;24263;-60
2022/12/05 11:38:51;;;;;;;68.80;34.80;;;;;;;4.26;93.63;100564.84;102795;1287;25333;-60
2022/12/05 11:41:45;;;;;;;64.00;32.30;;;;;;;4.28;93.59;100567.70;102869;1296;25355;-61
2022/12/05 11:44:40;;;;;;;66.40;34.00;;;;;;;4.29;93.59;100563.20;103030;1282;22519;-61
2022/12/05 11:47:27;;;;;;;69.50;33.30;;;;;;;4.29;93.53;100564.05;102875;1284;22481;-59
2022/12/05 11:50:24;;;;;;;69.10;33.00;;;;;;;4.32;93.71;100558.45;103223;1277;22530;-60